Pagrindinis puslapis
METAR-TAF:

METAR-TAF

Oro uostai :

Mendosa, Argentina

platuma: 32-50S, ilguma: 068-47W, Aukštis: 705 m

Dabartinis oras

Ataskaita buvo paskelbta 47 minutes, ne 22:00 UTC
Vėjas 5 kt iš Rytų
Temperatūra 26°C
Drėgmė 23%
Slėgis 1017 hPa
Matomumas 10 km arba daugiau
Mažai debesys ne aukštis 4500 ft
Išsisklaidę debesys ne aukštis 5000 ft, aukštai iškilę kamuoliniai debesys.

METAR: SAME 042200Z 09005KT 9999 FEW045 SCT050TCU 26/03 Q1017

Laikas: 19:47 (22:47 UTC)

Prognozė

Ataskaita buvo paskelbta 5 valandos ir 47 minutes, ne 17:00 UTC
Prognozė galioja nuo 04 metu 18 UTC su 05 metu 18 UTC
Vėjas 10 kt iš Šiaurės Rytų
Matomumas 10 km arba daugiau
nėra debesų žemiau 1500 m ir nėra kamuolinių lietaus debesų
Tapsmas
nuo 05 metu 02 UTC su 05 metu 04 UTC
Vėjas 3 kt nuo kintamojo kryptimis

TAF: SAME 041700Z 0418/0518 05010KT CAVOK TX27/0420Z TN15/0510Z BECMG 0502/0504 VRB03KT

Orai ataskaitas ir orų prognozės (METAR, TAF).

turimą stotys yra geltonos ir raudonos taškus žemėlapyje.

Perkelti pele per norėdami pamatyti stoties vardą.

Tada spustelėkite, norėdami matyti oro stebėjimo ir prognozės.

Norėdami pakeisti žemėlapį: spustelėkite ant žalios mygtukų su juodo kryžiaus žemyn,; žalią mygtuką su brūkšneliu, jei norite nutolinti; arba žalių rodyklių gretimoms žemėlapius.


METAR-TAF: